sensor_id;sensor_type;location;lat;lon;timestamp;temperature;humidity
17879;DHT22;9065;51.050;13.758;2022-07-22T00:02:26;20.30;99.90
17879;DHT22;9065;51.050;13.758;2022-07-22T00:04:54;20.30;99.90
17879;DHT22;9065;51.050;13.758;2022-07-22T00:07:21;20.30;99.90
17879;DHT22;9065;51.050;13.758;2022-07-22T00:09:49;20.30;99.90
17879;DHT22;9065;51.050;13.758;2022-07-22T00:12:16;20.30;99.90
17879;DHT22;9065;51.050;13.758;2022-07-22T00:14:45;20.30;99.90
17879;DHT22;9065;51.050;13.758;2022-07-22T00:17:13;20.30;99.90
17879;DHT22;9065;51.050;13.758;2022-07-22T00:19:42;20.30;99.90
17879;DHT22;9065;51.050;13.758;2022-07-22T00:22:11;20.40;99.90
17879;DHT22;9065;51.050;13.758;2022-07-22T00:24:39;20.30;99.90
17879;DHT22;9065;51.050;13.758;2022-07-22T00:27:07;20.30;99.90
17879;DHT22;9065;51.050;13.758;2022-07-22T00:29:35;20.30;99.90
17879;DHT22;9065;51.050;13.758;2022-07-22T00:32:03;20.30;99.90
17879;DHT22;9065;51.050;13.758;2022-07-22T00:34:30;20.20;99.90
17879;DHT22;9065;51.050;13.758;2022-07-22T00:36:57;20.20;99.90
17879;DHT22;9065;51.050;13.758;2022-07-22T00:39:25;20.20;99.90
17879;DHT22;9065;51.050;13.758;2022-07-22T00:41:53;20.20;99.90
17879;DHT22;9065;51.050;13.758;2022-07-22T00:44:20;20.20;99.90
17879;DHT22;9065;51.050;13.758;2022-07-22T00:46:48;20.20;99.90
17879;DHT22;9065;51.050;13.758;2022-07-22T00:49:15;20.10;99.90
17879;DHT22;9065;51.050;13.758;2022-07-22T00:51:42;20.10;99.90
17879;DHT22;9065;51.050;13.758;2022-07-22T00:54:10;20.10;99.90
17879;DHT22;9065;51.050;13.758;2022-07-22T00:56:40;20.00;99.90
17879;DHT22;9065;51.050;13.758;2022-07-22T00:59:10;19.90;99.90
17879;DHT22;9065;51.050;13.758;2022-07-22T01:01:39;19.90;99.90
17879;DHT22;9065;51.050;13.758;2022-07-22T01:04:07;19.90;99.90
17879;DHT22;9065;51.050;13.758;2022-07-22T01:06:34;19.90;99.90
17879;DHT22;9065;51.050;13.758;2022-07-22T01:09:02;19.90;99.90
17879;DHT22;9065;51.050;13.758;2022-07-22T01:11:29;19.90;99.90
17879;DHT22;9065;51.050;13.758;2022-07-22T01:13:59;19.90;99.90
17879;DHT22;9065;51.050;13.758;2022-07-22T01:16:26;19.80;99.90
17879;DHT22;9065;51.050;13.758;2022-07-22T01:18:54;19.80;99.90
17879;DHT22;9065;51.050;13.758;2022-07-22T01:21:23;19.80;99.90
17879;DHT22;9065;51.050;13.758;2022-07-22T01:23:49;19.80;99.90
17879;DHT22;9065;51.050;13.758;2022-07-22T01:26:17;19.80;99.90
17879;DHT22;9065;51.050;13.758;2022-07-22T01:28:46;19.80;99.90
17879;DHT22;9065;51.050;13.758;2022-07-22T01:31:13;19.70;99.90
17879;DHT22;9065;51.050;13.758;2022-07-22T01:33:41;19.70;99.90
17879;DHT22;9065;51.050;13.758;2022-07-22T01:36:10;19.70;99.90
17879;DHT22;9065;51.050;13.758;2022-07-22T01:38:40;19.60;99.90
17879;DHT22;9065;51.050;13.758;2022-07-22T01:41:08;19.60;99.90
17879;DHT22;9065;51.050;13.758;2022-07-22T01:43:36;19.50;99.90
17879;DHT22;9065;51.050;13.758;2022-07-22T01:46:06;19.60;99.90
17879;DHT22;9065;51.050;13.758;2022-07-22T01:48:33;19.60;99.90
17879;DHT22;9065;51.050;13.758;2022-07-22T01:51:01;19.60;99.90
17879;DHT22;9065;51.050;13.758;2022-07-22T01:53:29;19.60;99.90
17879;DHT22;9065;51.050;13.758;2022-07-22T01:55:58;19.60;99.90
17879;DHT22;9065;51.050;13.758;2022-07-22T01:58:26;19.60;99.90
17879;DHT22;9065;51.050;13.758;2022-07-22T02:00:53;19.50;99.90
17879;DHT22;9065;51.050;13.758;2022-07-22T02:03:21;19.50;99.90
17879;DHT22;9065;51.050;13.758;2022-07-22T02:05:49;19.50;99.90
17879;DHT22;9065;51.050;13.758;2022-07-22T02:08:16;19.50;99.90
17879;DHT22;9065;51.050;13.758;2022-07-22T02:10:44;19.50;99.90
17879;DHT22;9065;51.050;13.758;2022-07-22T02:13:13;19.50;99.90
17879;DHT22;9065;51.050;13.758;2022-07-22T02:15:40;19.50;99.90
17879;DHT22;9065;51.050;13.758;2022-07-22T02:18:11;19.50;99.90
17879;DHT22;9065;51.050;13.758;2022-07-22T02:20:39;19.40;99.90
17879;DHT22;9065;51.050;13.758;2022-07-22T02:23:08;19.40;99.90
17879;DHT22;9065;51.050;13.758;2022-07-22T02:25:37;19.40;99.90
17879;DHT22;9065;51.050;13.758;2022-07-22T02:28:05;19.40;99.90
17879;DHT22;9065;51.050;13.758;2022-07-22T02:30:36;19.40;99.90
17879;DHT22;9065;51.050;13.758;2022-07-22T02:33:02;19.30;99.90
17879;DHT22;9065;51.050;13.758;2022-07-22T02:35:29;19.30;99.90
17879;DHT22;9065;51.050;13.758;2022-07-22T02:37:58;19.30;99.90
17879;DHT22;9065;51.050;13.758;2022-07-22T02:40:27;19.30;99.90
17879;DHT22;9065;51.050;13.758;2022-07-22T02:42:54;19.30;99.90
17879;DHT22;9065;51.050;13.758;2022-07-22T02:45:22;19.30;99.90
17879;DHT22;9065;51.050;13.758;2022-07-22T02:47:53;19.30;99.90
17879;DHT22;9065;51.050;13.758;2022-07-22T02:50:21;19.30;99.90
17879;DHT22;9065;51.050;13.758;2022-07-22T02:52:50;19.30;99.90
17879;DHT22;9065;51.050;13.758;2022-07-22T02:55:17;19.30;99.90
17879;DHT22;9065;51.050;13.758;2022-07-22T02:57:45;19.30;99.90
17879;DHT22;9065;51.050;13.758;2022-07-22T03:00:13;19.20;99.90
17879;DHT22;9065;51.050;13.758;2022-07-22T03:02:41;19.20;99.90
17879;DHT22;9065;51.050;13.758;2022-07-22T03:05:10;19.10;99.90
17879;DHT22;9065;51.050;13.758;2022-07-22T03:07:38;19.10;99.90
17879;DHT22;9065;51.050;13.758;2022-07-22T03:10:06;19.20;99.90
17879;DHT22;9065;51.050;13.758;2022-07-22T03:12:35;19.10;99.90
17879;DHT22;9065;51.050;13.758;2022-07-22T03:15:03;19.10;99.90
17879;DHT22;9065;51.050;13.758;2022-07-22T03:17:33;19.00;99.90
17879;DHT22;9065;51.050;13.758;2022-07-22T03:20:01;19.00;99.90
17879;DHT22;9065;51.050;13.758;2022-07-22T03:22:31;19.00;99.90
17879;DHT22;9065;51.050;13.758;2022-07-22T03:24:59;19.00;99.90
17879;DHT22;9065;51.050;13.758;2022-07-22T03:27:27;18.90;99.90
17879;DHT22;9065;51.050;13.758;2022-07-22T03:29:54;19.00;99.90
17879;DHT22;9065;51.050;13.758;2022-07-22T03:32:22;19.00;99.90
17879;DHT22;9065;51.050;13.758;2022-07-22T03:34:48;19.00;99.90
17879;DHT22;9065;51.050;13.758;2022-07-22T03:37:17;19.00;99.90
17879;DHT22;9065;51.050;13.758;2022-07-22T03:39:46;19.00;99.90
17879;DHT22;9065;51.050;13.758;2022-07-22T03:42:13;18.90;99.90
17879;DHT22;9065;51.050;13.758;2022-07-22T03:44:40;19.00;99.90
17879;DHT22;9065;51.050;13.758;2022-07-22T03:47:16;19.00;99.90
17879;DHT22;9065;51.050;13.758;2022-07-22T03:49:45;19.00;99.90
17879;DHT22;9065;51.050;13.758;2022-07-22T03:52:12;19.00;99.90
17879;DHT22;9065;51.050;13.758;2022-07-22T03:54:40;19.00;99.90
17879;DHT22;9065;51.050;13.758;2022-07-22T03:57:10;19.00;99.90
17879;DHT22;9065;51.050;13.758;2022-07-22T03:59:38;19.00;99.90
17879;DHT22;9065;51.050;13.758;2022-07-22T04:02:06;19.00;99.90
17879;DHT22;9065;51.050;13.758;2022-07-22T04:04:34;19.00;99.90
17879;DHT22;9065;51.050;13.758;2022-07-22T04:07:00;19.00;99.90
17879;DHT22;9065;51.050;13.758;2022-07-22T04:09:27;19.00;99.90
17879;DHT22;9065;51.050;13.758;2022-07-22T04:11:54;19.00;99.90
17879;DHT22;9065;51.050;13.758;2022-07-22T04:14:23;19.00;99.90
17879;DHT22;9065;51.050;13.758;2022-07-22T04:16:51;19.00;99.90
17879;DHT22;9065;51.050;13.758;2022-07-22T04:19:20;19.00;99.90
17879;DHT22;9065;51.050;13.758;2022-07-22T04:21:47;19.00;99.90
17879;DHT22;9065;51.050;13.758;2022-07-22T04:24:15;19.00;99.90
17879;DHT22;9065;51.050;13.758;2022-07-22T04:26:44;19.10;99.90
17879;DHT22;9065;51.050;13.758;2022-07-22T04:29:12;19.00;99.90
17879;DHT22;9065;51.050;13.758;2022-07-22T04:31:40;19.00;99.90
17879;DHT22;9065;51.050;13.758;2022-07-22T04:34:07;19.10;99.90
17879;DHT22;9065;51.050;13.758;2022-07-22T04:36:36;19.20;99.90
17879;DHT22;9065;51.050;13.758;2022-07-22T04:39:10;19.10;99.90
17879;DHT22;9065;51.050;13.758;2022-07-22T04:41:37;19.20;99.90
17879;DHT22;9065;51.050;13.758;2022-07-22T04:44:04;19.20;99.90
17879;DHT22;9065;51.050;13.758;2022-07-22T04:46:33;19.20;99.90
17879;DHT22;9065;51.050;13.758;2022-07-22T04:49:03;19.30;99.90
17879;DHT22;9065;51.050;13.758;2022-07-22T04:51:30;19.30;99.90
17879;DHT22;9065;51.050;13.758;2022-07-22T04:53:57;19.40;99.90
17879;DHT22;9065;51.050;13.758;2022-07-22T04:56:30;19.50;99.90
17879;DHT22;9065;51.050;13.758;2022-07-22T04:58:57;19.50;99.90
17879;DHT22;9065;51.050;13.758;2022-07-22T05:01:25;19.70;99.90
17879;DHT22;9065;51.050;13.758;2022-07-22T05:03:52;19.70;99.90
17879;DHT22;9065;51.050;13.758;2022-07-22T05:06:22;19.80;99.90
17879;DHT22;9065;51.050;13.758;2022-07-22T05:08:48;19.90;99.90
17879;DHT22;9065;51.050;13.758;2022-07-22T05:11:15;19.90;99.90
17879;DHT22;9065;51.050;13.758;2022-07-22T05:13:43;20.00;99.90
17879;DHT22;9065;51.050;13.758;2022-07-22T05:16:11;20.10;99.90
17879;DHT22;9065;51.050;13.758;2022-07-22T05:18:39;20.20;99.90
17879;DHT22;9065;51.050;13.758;2022-07-22T05:21:11;20.40;99.90
17879;DHT22;9065;51.050;13.758;2022-07-22T05:23:40;20.50;99.90
17879;DHT22;9065;51.050;13.758;2022-07-22T05:26:07;20.70;99.90
17879;DHT22;9065;51.050;13.758;2022-07-22T05:28:36;20.70;99.90
17879;DHT22;9065;51.050;13.758;2022-07-22T05:31:03;20.80;99.90
17879;DHT22;9065;51.050;13.758;2022-07-22T05:33:32;20.80;99.90
17879;DHT22;9065;51.050;13.758;2022-07-22T05:36:05;20.90;99.90
17879;DHT22;9065;51.050;13.758;2022-07-22T05:38:40;20.90;99.90
17879;DHT22;9065;51.050;13.758;2022-07-22T05:41:13;21.00;99.90
17879;DHT22;9065;51.050;13.758;2022-07-22T05:43:40;21.10;99.90
17879;DHT22;9065;51.050;13.758;2022-07-22T05:46:06;21.20;99.90
17879;DHT22;9065;51.050;13.758;2022-07-22T05:48:34;21.30;99.90
17879;DHT22;9065;51.050;13.758;2022-07-22T05:51:03;21.30;99.90
17879;DHT22;9065;51.050;13.758;2022-07-22T05:53:30;21.40;99.90
17879;DHT22;9065;51.050;13.758;2022-07-22T05:56:00;21.50;99.90
17879;DHT22;9065;51.050;13.758;2022-07-22T05:58:28;21.70;99.90
17879;DHT22;9065;51.050;13.758;2022-07-22T06:00:55;21.80;99.90
17879;DHT22;9065;51.050;13.758;2022-07-22T06:03:23;21.90;99.90
17879;DHT22;9065;51.050;13.758;2022-07-22T06:05:51;22.00;99.90
17879;DHT22;9065;51.050;13.758;2022-07-22T06:08:19;22.10;99.90
17879;DHT22;9065;51.050;13.758;2022-07-22T06:10:47;22.30;99.90
17879;DHT22;9065;51.050;13.758;2022-07-22T06:13:15;22.50;99.90
17879;DHT22;9065;51.050;13.758;2022-07-22T06:15:42;22.60;99.90
17879;DHT22;9065;51.050;13.758;2022-07-22T06:18:10;22.70;99.90
17879;DHT22;9065;51.050;13.758;2022-07-22T06:20:40;22.70;99.90
17879;DHT22;9065;51.050;13.758;2022-07-22T06:23:09;22.80;99.90
17879;DHT22;9065;51.050;13.758;2022-07-22T06:25:37;22.80;99.90
17879;DHT22;9065;51.050;13.758;2022-07-22T06:28:09;22.80;99.90
17879;DHT22;9065;51.050;13.758;2022-07-22T06:30:39;22.90;99.90
17879;DHT22;9065;51.050;13.758;2022-07-22T06:33:08;23.00;99.90
17879;DHT22;9065;51.050;13.758;2022-07-22T06:35:38;23.10;99.90
17879;DHT22;9065;51.050;13.758;2022-07-22T06:38:07;23.20;99.90
17879;DHT22;9065;51.050;13.758;2022-07-22T06:40:34;23.20;99.90
17879;DHT22;9065;51.050;13.758;2022-07-22T06:43:08;23.30;99.90
17879;DHT22;9065;51.050;13.758;2022-07-22T06:45:35;23.40;99.90
17879;DHT22;9065;51.050;13.758;2022-07-22T06:48:04;23.50;99.90
17879;DHT22;9065;51.050;13.758;2022-07-22T06:50:32;23.70;99.90
17879;DHT22;9065;51.050;13.758;2022-07-22T06:53:00;23.70;99.90
17879;DHT22;9065;51.050;13.758;2022-07-22T06:55:33;23.70;99.90
17879;DHT22;9065;51.050;13.758;2022-07-22T06:58:01;23.80;99.90
17879;DHT22;9065;51.050;13.758;2022-07-22T07:00:29;23.90;99.90
17879;DHT22;9065;51.050;13.758;2022-07-22T07:02:58;24.00;99.90
17879;DHT22;9065;51.050;13.758;2022-07-22T07:05:27;24.00;99.90
17879;DHT22;9065;51.050;13.758;2022-07-22T07:07:55;24.10;99.90
17879;DHT22;9065;51.050;13.758;2022-07-22T07:10:23;24.10;99.90
17879;DHT22;9065;51.050;13.758;2022-07-22T07:12:50;24.20;99.90
17879;DHT22;9065;51.050;13.758;2022-07-22T07:15:21;24.30;99.90
17879;DHT22;9065;51.050;13.758;2022-07-22T07:17:49;24.30;99.90
17879;DHT22;9065;51.050;13.758;2022-07-22T07:20:16;24.30;99.90
17879;DHT22;9065;51.050;13.758;2022-07-22T07:22:48;24.50;99.90
17879;DHT22;9065;51.050;13.758;2022-07-22T07:25:15;24.90;99.90
17879;DHT22;9065;51.050;13.758;2022-07-22T07:27:42;25.30;99.90
17879;DHT22;9065;51.050;13.758;2022-07-22T07:30:10;25.50;99.90
17879;DHT22;9065;51.050;13.758;2022-07-22T07:32:38;25.80;99.90
17879;DHT22;9065;51.050;13.758;2022-07-22T07:35:07;26.10;99.90
17879;DHT22;9065;51.050;13.758;2022-07-22T07:37:36;26.40;99.90
17879;DHT22;9065;51.050;13.758;2022-07-22T07:40:07;27.00;99.90
17879;DHT22;9065;51.050;13.758;2022-07-22T07:42:35;27.30;99.90
17879;DHT22;9065;51.050;13.758;2022-07-22T07:45:03;27.70;99.90
17879;DHT22;9065;51.050;13.758;2022-07-22T07:47:31;28.30;99.90
17879;DHT22;9065;51.050;13.758;2022-07-22T07:49:58;28.00;99.90
17879;DHT22;9065;51.050;13.758;2022-07-22T07:52:27;27.70;99.90
17879;DHT22;9065;51.050;13.758;2022-07-22T07:54:55;28.00;99.90
17879;DHT22;9065;51.050;13.758;2022-07-22T07:57:24;28.20;99.90
17879;DHT22;9065;51.050;13.758;2022-07-22T07:59:51;28.90;99.90
17879;DHT22;9065;51.050;13.758;2022-07-22T08:02:19;29.30;99.90
17879;DHT22;9065;51.050;13.758;2022-07-22T08:04:47;29.00;99.90
17879;DHT22;9065;51.050;13.758;2022-07-22T08:07:14;29.40;99.90
17879;DHT22;9065;51.050;13.758;2022-07-22T08:09:50;29.50;99.90
17879;DHT22;9065;51.050;13.758;2022-07-22T08:12:20;29.80;99.90
17879;DHT22;9065;51.050;13.758;2022-07-22T08:14:48;30.40;99.90
17879;DHT22;9065;51.050;13.758;2022-07-22T08:17:16;30.40;99.90
17879;DHT22;9065;51.050;13.758;2022-07-22T08:19:44;29.90;99.90
17879;DHT22;9065;51.050;13.758;2022-07-22T08:22:12;29.90;99.90
17879;DHT22;9065;51.050;13.758;2022-07-22T08:24:39;30.10;99.90
17879;DHT22;9065;51.050;13.758;2022-07-22T08:27:06;29.80;99.90
17879;DHT22;9065;51.050;13.758;2022-07-22T08:29:39;30.40;99.90
17879;DHT22;9065;51.050;13.758;2022-07-22T08:32:08;30.50;99.90
17879;DHT22;9065;51.050;13.758;2022-07-22T08:34:35;30.10;99.90
17879;DHT22;9065;51.050;13.758;2022-07-22T08:37:02;29.90;99.90
17879;DHT22;9065;51.050;13.758;2022-07-22T08:39:29;30.10;99.90
17879;DHT22;9065;51.050;13.758;2022-07-22T08:41:58;30.30;99.90
17879;DHT22;9065;51.050;13.758;2022-07-22T08:44:29;30.30;99.90
17879;DHT22;9065;51.050;13.758;2022-07-22T08:46:58;30.20;99.90
17879;DHT22;9065;51.050;13.758;2022-07-22T08:49:27;29.90;99.90
17879;DHT22;9065;51.050;13.758;2022-07-22T08:51:55;29.90;99.90
17879;DHT22;9065;51.050;13.758;2022-07-22T08:54:21;30.30;99.90
17879;DHT22;9065;51.050;13.758;2022-07-22T08:56:49;30.10;99.90
17879;DHT22;9065;51.050;13.758;2022-07-22T08:59:18;30.00;99.90
17879;DHT22;9065;51.050;13.758;2022-07-22T09:02:00;30.00;99.90
17879;DHT22;9065;51.050;13.758;2022-07-22T09:04:29;29.80;99.90
17879;DHT22;9065;51.050;13.758;2022-07-22T09:06:57;29.60;99.90
17879;DHT22;9065;51.050;13.758;2022-07-22T09:09:34;29.60;99.90
17879;DHT22;9065;51.050;13.758;2022-07-22T09:12:06;29.70;99.90
17879;DHT22;9065;51.050;13.758;2022-07-22T09:14:44;29.80;99.90
17879;DHT22;9065;51.050;13.758;2022-07-22T09:17:25;29.50;99.90
17879;DHT22;9065;51.050;13.758;2022-07-22T09:19:54;29.30;99.90
17879;DHT22;9065;51.050;13.758;2022-07-22T09:22:39;29.10;99.90
17879;DHT22;9065;51.050;13.758;2022-07-22T09:25:25;29.30;99.90
17879;DHT22;9065;51.050;13.758;2022-07-22T09:27:55;29.80;99.90
17879;DHT22;9065;51.050;13.758;2022-07-22T09:30:25;29.90;99.90
17879;DHT22;9065;51.050;13.758;2022-07-22T09:32:54;29.60;99.90
17879;DHT22;9065;51.050;13.758;2022-07-22T09:35:24;29.60;99.90
17879;DHT22;9065;51.050;13.758;2022-07-22T09:37:55;29.80;99.90
17879;DHT22;9065;51.050;13.758;2022-07-22T09:40:24;29.80;99.90
17879;DHT22;9065;51.050;13.758;2022-07-22T09:42:53;29.40;99.90
17879;DHT22;9065;51.050;13.758;2022-07-22T09:45:22;29.80;99.90
17879;DHT22;9065;51.050;13.758;2022-07-22T09:47:50;30.60;99.90
17879;DHT22;9065;51.050;13.758;2022-07-22T09:50:20;31.10;99.90
17879;DHT22;9065;51.050;13.758;2022-07-22T09:52:49;31.50;99.90
17879;DHT22;9065;51.050;13.758;2022-07-22T09:55:17;31.80;99.90
17879;DHT22;9065;51.050;13.758;2022-07-22T09:57:45;31.90;99.90
17879;DHT22;9065;51.050;13.758;2022-07-22T10:00:14;31.90;99.90
17879;DHT22;9065;51.050;13.758;2022-07-22T10:02:45;31.80;99.90
17879;DHT22;9065;51.050;13.758;2022-07-22T10:05:14;31.60;99.90
17879;DHT22;9065;51.050;13.758;2022-07-22T10:07:44;30.80;99.90
17879;DHT22;9065;51.050;13.758;2022-07-22T10:10:14;30.80;99.90
17879;DHT22;9065;51.050;13.758;2022-07-22T10:12:44;31.50;99.90
17879;DHT22;9065;51.050;13.758;2022-07-22T10:15:12;32.50;99.90
17879;DHT22;9065;51.050;13.758;2022-07-22T10:17:42;32.70;99.90
17879;DHT22;9065;51.050;13.758;2022-07-22T10:20:11;32.70;99.90
17879;DHT22;9065;51.050;13.758;2022-07-22T10:22:50;32.60;99.90
17879;DHT22;9065;51.050;13.758;2022-07-22T10:25:20;32.40;99.90
17879;DHT22;9065;51.050;13.758;2022-07-22T10:27:50;33.90;99.90
17879;DHT22;9065;51.050;13.758;2022-07-22T10:30:20;34.10;99.90
17879;DHT22;9065;51.050;13.758;2022-07-22T10:33:06;33.20;99.90
17879;DHT22;9065;51.050;13.758;2022-07-22T10:35:36;33.90;99.90
17879;DHT22;9065;51.050;13.758;2022-07-22T10:38:06;33.90;99.90
17879;DHT22;9065;51.050;13.758;2022-07-22T10:40:49;34.40;99.90
17879;DHT22;9065;51.050;13.758;2022-07-22T10:43:18;34.40;99.90
17879;DHT22;9065;51.050;13.758;2022-07-22T10:45:47;34.00;99.90
17879;DHT22;9065;51.050;13.758;2022-07-22T10:48:20;33.70;99.90
17879;DHT22;9065;51.050;13.758;2022-07-22T10:50:55;33.40;99.90
17879;DHT22;9065;51.050;13.758;2022-07-22T10:53:44;33.30;99.90
17879;DHT22;9065;51.050;13.758;2022-07-22T10:56:22;32.60;99.90
17879;DHT22;9065;51.050;13.758;2022-07-22T10:58:54;32.40;99.90
17879;DHT22;9065;51.050;13.758;2022-07-22T11:01:24;32.30;99.90
17879;DHT22;9065;51.050;13.758;2022-07-22T11:03:53;32.30;99.90
17879;DHT22;9065;51.050;13.758;2022-07-22T11:06:26;32.20;99.90
17879;DHT22;9065;51.050;13.758;2022-07-22T11:08:56;31.90;99.90
17879;DHT22;9065;51.050;13.758;2022-07-22T11:11:40;31.60;99.90
17879;DHT22;9065;51.050;13.758;2022-07-22T11:14:13;31.50;99.90
17879;DHT22;9065;51.050;13.758;2022-07-22T11:16:42;31.40;99.90
17879;DHT22;9065;51.050;13.758;2022-07-22T11:19:10;31.10;99.90
17879;DHT22;9065;51.050;13.758;2022-07-22T11:21:37;30.80;99.90
17879;DHT22;9065;51.050;13.758;2022-07-22T11:24:07;30.90;99.90
17879;DHT22;9065;51.050;13.758;2022-07-22T11:26:39;31.40;99.90
17879;DHT22;9065;51.050;13.758;2022-07-22T11:29:08;31.50;99.90
17879;DHT22;9065;51.050;13.758;2022-07-22T11:31:38;31.40;99.90
17879;DHT22;9065;51.050;13.758;2022-07-22T11:34:07;31.30;99.90
17879;DHT22;9065;51.050;13.758;2022-07-22T11:36:37;31.20;99.90
17879;DHT22;9065;51.050;13.758;2022-07-22T11:39:05;31.00;99.90
17879;DHT22;9065;51.050;13.758;2022-07-22T11:41:32;31.10;99.90
17879;DHT22;9065;51.050;13.758;2022-07-22T11:44:02;31.50;99.90
17879;DHT22;9065;51.050;13.758;2022-07-22T11:46:35;31.60;99.90
17879;DHT22;9065;51.050;13.758;2022-07-22T11:49:04;31.40;99.90
17879;DHT22;9065;51.050;13.758;2022-07-22T11:51:32;31.10;99.90
17879;DHT22;9065;51.050;13.758;2022-07-22T11:54:00;31.00;99.90
17879;DHT22;9065;51.050;13.758;2022-07-22T11:56:27;30.90;99.90
17879;DHT22;9065;51.050;13.758;2022-07-22T11:58:57;30.90;99.90
17879;DHT22;9065;51.050;13.758;2022-07-22T12:01:27;30.80;99.90
17879;DHT22;9065;51.050;13.758;2022-07-22T12:03:58;30.90;99.90
17879;DHT22;9065;51.050;13.758;2022-07-22T12:06:27;30.70;99.90
17879;DHT22;9065;51.050;13.758;2022-07-22T12:09:02;30.70;99.90
17879;DHT22;9065;51.050;13.758;2022-07-22T12:11:31;30.80;99.90
17879;DHT22;9065;51.050;13.758;2022-07-22T12:14:05;30.70;99.90
17879;DHT22;9065;51.050;13.758;2022-07-22T12:16:36;30.70;99.90
17879;DHT22;9065;51.050;13.758;2022-07-22T12:19:06;30.40;99.90
17879;DHT22;9065;51.050;13.758;2022-07-22T12:21:34;30.20;99.90
17879;DHT22;9065;51.050;13.758;2022-07-22T12:24:05;30.10;99.90
17879;DHT22;9065;51.050;13.758;2022-07-22T12:26:40;30.10;99.90
17879;DHT22;9065;51.050;13.758;2022-07-22T12:29:22;30.00;99.90
17879;DHT22;9065;51.050;13.758;2022-07-22T12:32:05;29.70;99.90
17879;DHT22;9065;51.050;13.758;2022-07-22T12:34:37;29.70;99.90
17879;DHT22;9065;51.050;13.758;2022-07-22T12:37:13;29.80;99.90
17879;DHT22;9065;51.050;13.758;2022-07-22T12:39:52;29.80;99.90
17879;DHT22;9065;51.050;13.758;2022-07-22T12:42:19;30.00;99.90
17879;DHT22;9065;51.050;13.758;2022-07-22T12:45:01;29.90;99.90
17879;DHT22;9065;51.050;13.758;2022-07-22T12:47:40;29.70;99.90
17879;DHT22;9065;51.050;13.758;2022-07-22T12:50:18;29.50;99.90
17879;DHT22;9065;51.050;13.758;2022-07-22T12:52:46;29.50;99.90
17879;DHT22;9065;51.050;13.758;2022-07-22T12:55:12;29.60;99.90
17879;DHT22;9065;51.050;13.758;2022-07-22T12:57:45;29.60;99.90
17879;DHT22;9065;51.050;13.758;2022-07-22T13:00:18;29.50;99.90
17879;DHT22;9065;51.050;13.758;2022-07-22T13:02:47;29.60;99.90
17879;DHT22;9065;51.050;13.758;2022-07-22T13:05:20;29.60;99.90
17879;DHT22;9065;51.050;13.758;2022-07-22T13:07:47;29.70;99.90
17879;DHT22;9065;51.050;13.758;2022-07-22T13:10:16;29.70;99.90
17879;DHT22;9065;51.050;13.758;2022-07-22T13:12:43;29.60;99.90
17879;DHT22;9065;51.050;13.758;2022-07-22T13:15:11;29.60;99.90
17879;DHT22;9065;51.050;13.758;2022-07-22T13:17:39;29.60;99.90
17879;DHT22;9065;51.050;13.758;2022-07-22T13:20:10;29.50;99.90
17879;DHT22;9065;51.050;13.758;2022-07-22T13:22:38;29.50;99.90
17879;DHT22;9065;51.050;13.758;2022-07-22T13:25:05;29.40;99.90
17879;DHT22;9065;51.050;13.758;2022-07-22T13:27:33;29.30;99.90
17879;DHT22;9065;51.050;13.758;2022-07-22T13:30:00;29.20;99.90
17879;DHT22;9065;51.050;13.758;2022-07-22T13:32:27;29.20;99.90
17879;DHT22;9065;51.050;13.758;2022-07-22T13:34:56;29.30;99.90
17879;DHT22;9065;51.050;13.758;2022-07-22T13:37:25;29.40;99.90
17879;DHT22;9065;51.050;13.758;2022-07-22T13:39:53;29.40;99.90
17879;DHT22;9065;51.050;13.758;2022-07-22T13:42:22;29.50;99.90
17879;DHT22;9065;51.050;13.758;2022-07-22T13:44:49;29.50;99.90
17879;DHT22;9065;51.050;13.758;2022-07-22T13:47:18;29.40;99.90
17879;DHT22;9065;51.050;13.758;2022-07-22T13:49:47;29.30;99.90
17879;DHT22;9065;51.050;13.758;2022-07-22T13:52:14;29.20;99.90
17879;DHT22;9065;51.050;13.758;2022-07-22T13:54:44;29.20;99.90
17879;DHT22;9065;51.050;13.758;2022-07-22T13:57:11;29.20;99.90
17879;DHT22;9065;51.050;13.758;2022-07-22T13:59:40;29.20;99.90
17879;DHT22;9065;51.050;13.758;2022-07-22T14:02:08;29.20;99.90
17879;DHT22;9065;51.050;13.758;2022-07-22T14:04:36;29.20;99.90
17879;DHT22;9065;51.050;13.758;2022-07-22T14:07:03;29.30;99.90
17879;DHT22;9065;51.050;13.758;2022-07-22T14:09:30;29.30;99.90
17879;DHT22;9065;51.050;13.758;2022-07-22T14:11:58;29.40;99.90
17879;DHT22;9065;51.050;13.758;2022-07-22T14:14:26;29.50;99.90
17879;DHT22;9065;51.050;13.758;2022-07-22T14:16:54;29.40;99.90
17879;DHT22;9065;51.050;13.758;2022-07-22T14:19:21;29.30;99.90
17879;DHT22;9065;51.050;13.758;2022-07-22T14:21:49;29.30;99.90
17879;DHT22;9065;51.050;13.758;2022-07-22T14:24:17;29.30;99.90
17879;DHT22;9065;51.050;13.758;2022-07-22T14:26:43;29.20;99.90
17879;DHT22;9065;51.050;13.758;2022-07-22T14:29:12;29.30;99.90
17879;DHT22;9065;51.050;13.758;2022-07-22T14:31:39;29.30;99.90
17879;DHT22;9065;51.050;13.758;2022-07-22T14:34:05;29.20;99.90
17879;DHT22;9065;51.050;13.758;2022-07-22T14:36:39;29.10;99.90
17879;DHT22;9065;51.050;13.758;2022-07-22T14:39:07;29.10;99.90
17879;DHT22;9065;51.050;13.758;2022-07-22T14:41:33;29.10;99.90
17879;DHT22;9065;51.050;13.758;2022-07-22T14:44:01;29.10;99.90
17879;DHT22;9065;51.050;13.758;2022-07-22T14:46:32;29.10;99.90
17879;DHT22;9065;51.050;13.758;2022-07-22T14:49:01;29.20;99.90
17879;DHT22;9065;51.050;13.758;2022-07-22T14:51:39;29.10;99.90
17879;DHT22;9065;51.050;13.758;2022-07-22T14:54:06;29.10;99.90
17879;DHT22;9065;51.050;13.758;2022-07-22T14:56:35;29.10;99.90
17879;DHT22;9065;51.050;13.758;2022-07-22T14:59:08;29.20;99.90
17879;DHT22;9065;51.050;13.758;2022-07-22T15:01:39;29.20;99.90
17879;DHT22;9065;51.050;13.758;2022-07-22T15:04:07;29.20;99.90
17879;DHT22;9065;51.050;13.758;2022-07-22T15:06:35;29.20;99.90
17879;DHT22;9065;51.050;13.758;2022-07-22T15:09:03;29.20;99.90
17879;DHT22;9065;51.050;13.758;2022-07-22T15:11:42;29.20;99.90
17879;DHT22;9065;51.050;13.758;2022-07-22T15:14:10;29.20;99.90
17879;DHT22;9065;51.050;13.758;2022-07-22T15:16:37;29.10;99.90
17879;DHT22;9065;51.050;13.758;2022-07-22T15:19:06;29.10;99.90
17879;DHT22;9065;51.050;13.758;2022-07-22T15:21:33;29.00;99.90
17879;DHT22;9065;51.050;13.758;2022-07-22T15:24:01;29.10;99.90
17879;DHT22;9065;51.050;13.758;2022-07-22T15:26:28;29.10;99.90
17879;DHT22;9065;51.050;13.758;2022-07-22T15:28:56;29.10;99.90
17879;DHT22;9065;51.050;13.758;2022-07-22T15:31:24;29.20;99.90
17879;DHT22;9065;51.050;13.758;2022-07-22T15:33:54;29.20;99.90
17879;DHT22;9065;51.050;13.758;2022-07-22T15:36:22;29.10;99.90
17879;DHT22;9065;51.050;13.758;2022-07-22T15:38:52;29.10;99.90
17879;DHT22;9065;51.050;13.758;2022-07-22T15:41:18;29.10;99.90
17879;DHT22;9065;51.050;13.758;2022-07-22T15:43:49;29.10;99.90